sensor_id;sensor_type;location;lat;lon;timestamp;P1;durP1;ratioP1;P2;durP2;ratioP2
5297;SDS011;14738;42.668;23.250;2023-08-24T00:00:36;15.73;;;14.23;;
5297;SDS011;14738;42.668;23.250;2023-08-24T00:03:03;16.00;;;13.90;;
5297;SDS011;14738;42.668;23.250;2023-08-24T00:05:29;15.67;;;14.17;;
5297;SDS011;14738;42.668;23.250;2023-08-24T00:07:57;15.37;;;13.90;;
5297;SDS011;14738;42.668;23.250;2023-08-24T00:10:22;16.03;;;14.47;;
5297;SDS011;14738;42.668;23.250;2023-08-24T00:12:48;15.97;;;14.67;;
5297;SDS011;14738;42.668;23.250;2023-08-24T00:15:13;15.33;;;13.93;;
5297;SDS011;14738;42.668;23.250;2023-08-24T00:17:38;15.47;;;14.13;;
5297;SDS011;14738;42.668;23.250;2023-08-24T00:20:04;14.70;;;13.20;;
5297;SDS011;14738;42.668;23.250;2023-08-24T00:22:35;15.70;;;12.90;;
5297;SDS011;14738;42.668;23.250;2023-08-24T00:25:01;16.33;;;14.73;;
5297;SDS011;14738;42.668;23.250;2023-08-24T00:27:26;17.73;;;14.80;;
5297;SDS011;14738;42.668;23.250;2023-08-24T00:29:51;16.20;;;14.80;;
5297;SDS011;14738;42.668;23.250;2023-08-24T00:32:17;14.47;;;13.27;;
5297;SDS011;14738;42.668;23.250;2023-08-24T00:34:42;15.40;;;14.10;;
5297;SDS011;14738;42.668;23.250;2023-08-24T00:37:08;15.93;;;14.50;;
5297;SDS011;14738;42.668;23.250;2023-08-24T00:39:33;15.67;;;14.20;;
5297;SDS011;14738;42.668;23.250;2023-08-24T00:41:58;15.77;;;14.13;;
5297;SDS011;14738;42.668;23.250;2023-08-24T00:44:24;16.77;;;15.23;;
5297;SDS011;14738;42.668;23.250;2023-08-24T00:46:49;15.80;;;14.40;;
5297;SDS011;14738;42.668;23.250;2023-08-24T00:49:15;16.30;;;14.80;;
5297;SDS011;14738;42.668;23.250;2023-08-24T00:51:40;16.20;;;14.60;;
5297;SDS011;14738;42.668;23.250;2023-08-24T00:54:06;14.97;;;13.57;;
5297;SDS011;14738;42.668;23.250;2023-08-24T00:56:32;15.90;;;14.30;;
5297;SDS011;14738;42.668;23.250;2023-08-24T00:58:57;15.97;;;14.30;;
5297;SDS011;14738;42.668;23.250;2023-08-24T01:01:22;18.93;;;14.10;;
5297;SDS011;14738;42.668;23.250;2023-08-24T01:03:49;16.53;;;14.93;;
5297;SDS011;14738;42.668;23.250;2023-08-24T01:06:15;16.87;;;15.20;;
5297;SDS011;14738;42.668;23.250;2023-08-24T01:08:40;16.67;;;15.17;;
5297;SDS011;14738;42.668;23.250;2023-08-24T01:17:00;16.43;;;14.93;;
5297;SDS011;14738;42.668;23.250;2023-08-24T01:19:40;15.27;;;13.87;;
5297;SDS011;14738;42.668;23.250;2023-08-24T01:22:07;16.97;;;15.40;;
5297;SDS011;14738;42.668;23.250;2023-08-24T01:25:01;15.03;;;13.67;;
5297;SDS011;14738;42.668;23.250;2023-08-24T01:27:42;16.60;;;15.07;;
5297;SDS011;14738;42.668;23.250;2023-08-24T01:30:08;15.77;;;14.13;;
5297;SDS011;14738;42.668;23.250;2023-08-24T01:32:35;15.50;;;14.10;;
5297;SDS011;14738;42.668;23.250;2023-08-24T01:35:02;15.70;;;14.30;;
5297;SDS011;14738;42.668;23.250;2023-08-24T01:37:30;16.97;;;14.77;;
5297;SDS011;14738;42.668;23.250;2023-08-24T01:42:57;16.17;;;14.13;;
5297;SDS011;14738;42.668;23.250;2023-08-24T01:45:28;16.03;;;14.63;;
5297;SDS011;14738;42.668;23.250;2023-08-24T01:47:56;15.53;;;14.03;;
5297;SDS011;14738;42.668;23.250;2023-08-24T01:50:24;16.00;;;14.60;;
5297;SDS011;14738;42.668;23.250;2023-08-24T01:52:50;17.17;;;15.47;;
5297;SDS011;14738;42.668;23.250;2023-08-24T01:55:18;17.70;;;15.40;;
5297;SDS011;14738;42.668;23.250;2023-08-24T01:57:44;16.23;;;14.83;;
5297;SDS011;14738;42.668;23.250;2023-08-24T02:00:09;19.10;;;17.00;;
5297;SDS011;14738;42.668;23.250;2023-08-24T02:02:35;15.83;;;14.33;;
5297;SDS011;14738;42.668;23.250;2023-08-24T02:05:01;17.17;;;14.70;;
5297;SDS011;14738;42.668;23.250;2023-08-24T02:07:29;17.60;;;15.90;;
5297;SDS011;14738;42.668;23.250;2023-08-24T02:09:55;17.70;;;15.90;;
5297;SDS011;14738;42.668;23.250;2023-08-24T02:12:20;17.43;;;15.83;;
5297;SDS011;14738;42.668;23.250;2023-08-24T02:14:46;15.57;;;14.17;;
5297;SDS011;14738;42.668;23.250;2023-08-24T02:17:11;17.50;;;15.80;;
5297;SDS011;14738;42.668;23.250;2023-08-24T02:19:36;18.00;;;16.40;;
5297;SDS011;14738;42.668;23.250;2023-08-24T02:22:02;20.23;;;15.77;;
5297;SDS011;14738;42.668;23.250;2023-08-24T02:24:27;18.87;;;16.87;;
5297;SDS011;14738;42.668;23.250;2023-08-24T02:26:52;17.47;;;15.77;;
5297;SDS011;14738;42.668;23.250;2023-08-24T02:29:18;18.50;;;16.70;;
5297;SDS011;14738;42.668;23.250;2023-08-24T02:31:43;18.53;;;16.73;;
5297;SDS011;14738;42.668;23.250;2023-08-24T02:34:09;18.20;;;16.47;;
5297;SDS011;14738;42.668;23.250;2023-08-24T02:36:34;20.13;;;18.13;;
5297;SDS011;14738;42.668;23.250;2023-08-24T02:39:00;18.40;;;16.70;;
5297;SDS011;14738;42.668;23.250;2023-08-24T02:41:26;17.93;;;16.10;;
5297;SDS011;14738;42.668;23.250;2023-08-24T02:43:52;19.43;;;17.73;;
5297;SDS011;14738;42.668;23.250;2023-08-24T02:46:17;18.43;;;16.70;;
5297;SDS011;14738;42.668;23.250;2023-08-24T02:48:43;18.80;;;17.00;;
5297;SDS011;14738;42.668;23.250;2023-08-24T02:51:09;18.60;;;17.00;;
5297;SDS011;14738;42.668;23.250;2023-08-24T02:53:35;18.07;;;16.37;;
5297;SDS011;14738;42.668;23.250;2023-08-24T02:56:01;18.77;;;16.73;;
5297;SDS011;14738;42.668;23.250;2023-08-24T02:58:27;18.93;;;17.13;;
5297;SDS011;14738;42.668;23.250;2023-08-24T03:00:52;20.87;;;18.73;;
5297;SDS011;14738;42.668;23.250;2023-08-24T03:03:18;20.97;;;18.90;;
5297;SDS011;14738;42.668;23.250;2023-08-24T03:05:59;19.03;;;17.23;;
5297;SDS011;14738;42.668;23.250;2023-08-24T03:08:25;18.30;;;16.50;;
5297;SDS011;14738;42.668;23.250;2023-08-24T03:10:51;18.43;;;16.63;;
5297;SDS011;14738;42.668;23.250;2023-08-24T03:13:16;26.57;;;18.47;;
5297;SDS011;14738;42.668;23.250;2023-08-24T03:15:42;19.97;;;18.07;;
5297;SDS011;14738;42.668;23.250;2023-08-24T03:18:09;20.30;;;18.23;;
5297;SDS011;14738;42.668;23.250;2023-08-24T03:20:36;20.40;;;18.50;;
5297;SDS011;14738;42.668;23.250;2023-08-24T03:23:02;19.83;;;18.03;;
5297;SDS011;14738;42.668;23.250;2023-08-24T03:25:28;20.30;;;18.30;;
5297;SDS011;14738;42.668;23.250;2023-08-24T03:27:53;21.50;;;19.50;;
5297;SDS011;14738;42.668;23.250;2023-08-24T03:30:20;23.77;;;20.20;;
5297;SDS011;14738;42.668;23.250;2023-08-24T03:32:46;32.13;;;25.73;;
5297;SDS011;14738;42.668;23.250;2023-08-24T03:35:11;26.40;;;23.60;;
5297;SDS011;14738;42.668;23.250;2023-08-24T03:37:36;24.10;;;21.60;;
5297;SDS011;14738;42.668;23.250;2023-08-24T03:40:02;28.73;;;20.80;;
5297;SDS011;14738;42.668;23.250;2023-08-24T03:42:30;22.23;;;20.03;;
5297;SDS011;14738;42.668;23.250;2023-08-24T03:44:55;23.73;;;21.53;;
5297;SDS011;14738;42.668;23.250;2023-08-24T03:47:20;23.30;;;20.17;;
5297;SDS011;14738;42.668;23.250;2023-08-24T03:49:46;21.63;;;19.50;;
5297;SDS011;14738;42.668;23.250;2023-08-24T03:52:11;19.70;;;17.93;;
5297;SDS011;14738;42.668;23.250;2023-08-24T03:54:37;25.53;;;21.03;;
5297;SDS011;14738;42.668;23.250;2023-08-24T03:57:02;23.30;;;20.90;;
5297;SDS011;14738;42.668;23.250;2023-08-24T03:59:27;22.57;;;20.47;;
5297;SDS011;14738;42.668;23.250;2023-08-24T04:01:53;23.07;;;20.60;;
5297;SDS011;14738;42.668;23.250;2023-08-24T04:04:19;21.70;;;19.50;;
5297;SDS011;14738;42.668;23.250;2023-08-24T04:06:44;21.40;;;19.33;;
5297;SDS011;14738;42.668;23.250;2023-08-24T04:09:10;23.13;;;21.03;;
5297;SDS011;14738;42.668;23.250;2023-08-24T04:11:35;24.53;;;19.60;;
5297;SDS011;14738;42.668;23.250;2023-08-24T04:14:01;21.37;;;19.37;;
5297;SDS011;14738;42.668;23.250;2023-08-24T04:16:26;18.47;;;16.77;;
5297;SDS011;14738;42.668;23.250;2023-08-24T04:18:52;20.43;;;17.10;;
5297;SDS011;14738;42.668;23.250;2023-08-24T04:21:17;20.70;;;18.43;;
5297;SDS011;14738;42.668;23.250;2023-08-24T04:23:42;19.60;;;17.63;;
5297;SDS011;14738;42.668;23.250;2023-08-24T04:26:13;18.53;;;16.70;;
5297;SDS011;14738;42.668;23.250;2023-08-24T04:28:38;20.23;;;18.50;;
5297;SDS011;14738;42.668;23.250;2023-08-24T04:31:04;21.97;;;18.00;;
5297;SDS011;14738;42.668;23.250;2023-08-24T04:33:29;20.00;;;18.00;;
5297;SDS011;14738;42.668;23.250;2023-08-24T04:35:55;18.33;;;16.63;;
5297;SDS011;14738;42.668;23.250;2023-08-24T04:38:20;19.47;;;17.57;;
5297;SDS011;14738;42.668;23.250;2023-08-24T04:43:16;17.43;;;15.93;;
5297;SDS011;14738;42.668;23.250;2023-08-24T04:45:42;18.60;;;16.90;;
5297;SDS011;14738;42.668;23.250;2023-08-24T04:48:08;17.20;;;15.53;;
5297;SDS011;14738;42.668;23.250;2023-08-24T04:50:33;16.50;;;15.17;;
5297;SDS011;14738;42.668;23.250;2023-08-24T04:52:58;19.70;;;17.70;;
5297;SDS011;14738;42.668;23.250;2023-08-24T04:55:24;21.53;;;17.90;;
5297;SDS011;14738;42.668;23.250;2023-08-24T04:57:49;17.73;;;15.97;;
5297;SDS011;14738;42.668;23.250;2023-08-24T05:00:15;18.80;;;16.97;;
5297;SDS011;14738;42.668;23.250;2023-08-24T05:02:42;20.07;;;17.63;;
5297;SDS011;14738;42.668;23.250;2023-08-24T05:05:08;18.27;;;16.40;;
5297;SDS011;14738;42.668;23.250;2023-08-24T05:07:39;25.27;;;16.67;;
5297;SDS011;14738;42.668;23.250;2023-08-24T05:10:05;18.50;;;15.77;;
5297;SDS011;14738;42.668;23.250;2023-08-24T05:12:31;18.80;;;16.23;;
5297;SDS011;14738;42.668;23.250;2023-08-24T05:14:58;19.27;;;17.23;;
5297;SDS011;14738;42.668;23.250;2023-08-24T05:17:24;18.50;;;16.90;;
5297;SDS011;14738;42.668;23.250;2023-08-24T05:19:52;17.73;;;16.00;;
5297;SDS011;14738;42.668;23.250;2023-08-24T05:22:19;24.57;;;18.87;;
5297;SDS011;14738;42.668;23.250;2023-08-24T05:24:44;20.53;;;17.57;;
5297;SDS011;14738;42.668;23.250;2023-08-24T05:27:10;23.67;;;17.40;;
5297;SDS011;14738;42.668;23.250;2023-08-24T05:29:35;20.93;;;18.87;;
5297;SDS011;14738;42.668;23.250;2023-08-24T05:32:00;22.30;;;19.67;;
5297;SDS011;14738;42.668;23.250;2023-08-24T05:34:26;34.97;;;21.27;;
5297;SDS011;14738;42.668;23.250;2023-08-24T05:36:51;32.10;;;22.00;;
5297;SDS011;14738;42.668;23.250;2023-08-24T05:39:16;42.03;;;30.40;;
5297;SDS011;14738;42.668;23.250;2023-08-24T05:41:42;32.83;;;25.40;;
5297;SDS011;14738;42.668;23.250;2023-08-24T05:44:07;31.17;;;27.87;;
5297;SDS011;14738;42.668;23.250;2023-08-24T05:46:32;32.60;;;25.57;;
5297;SDS011;14738;42.668;23.250;2023-08-24T05:48:58;28.00;;;24.87;;
5297;SDS011;14738;42.668;23.250;2023-08-24T05:51:27;38.17;;;29.50;;
5297;SDS011;14738;42.668;23.250;2023-08-24T05:53:53;34.40;;;27.60;;
5297;SDS011;14738;42.668;23.250;2023-08-24T05:56:23;39.17;;;24.77;;
5297;SDS011;14738;42.668;23.250;2023-08-24T05:58:49;30.43;;;24.40;;
5297;SDS011;14738;42.668;23.250;2023-08-24T06:01:15;33.33;;;26.60;;
5297;SDS011;14738;42.668;23.250;2023-08-24T06:03:40;36.23;;;24.03;;
5297;SDS011;14738;42.668;23.250;2023-08-24T06:06:06;34.27;;;24.77;;
5297;SDS011;14738;42.668;23.250;2023-08-24T06:08:33;29.73;;;24.30;;
5297;SDS011;14738;42.668;23.250;2023-08-24T06:10:58;28.20;;;24.77;;
5297;SDS011;14738;42.668;23.250;2023-08-24T06:13:24;22.70;;;20.30;;
5297;SDS011;14738;42.668;23.250;2023-08-24T06:15:49;25.23;;;21.43;;
5297;SDS011;14738;42.668;23.250;2023-08-24T06:18:15;27.00;;;20.77;;
5297;SDS011;14738;42.668;23.250;2023-08-24T06:20:41;28.57;;;23.90;;
5297;SDS011;14738;42.668;23.250;2023-08-24T06:23:06;28.77;;;20.10;;
5297;SDS011;14738;42.668;23.250;2023-08-24T06:25:32;24.13;;;20.30;;
5297;SDS011;14738;42.668;23.250;2023-08-24T06:27:58;20.70;;;17.20;;
5297;SDS011;14738;42.668;23.250;2023-08-24T06:30:24;20.33;;;16.57;;
5297;SDS011;14738;42.668;23.250;2023-08-24T06:32:50;18.03;;;16.30;;
5297;SDS011;14738;42.668;23.250;2023-08-24T06:35:16;17.47;;;15.50;;
5297;SDS011;14738;42.668;23.250;2023-08-24T06:37:41;18.13;;;15.67;;
5297;SDS011;14738;42.668;23.250;2023-08-24T06:40:07;23.30;;;16.20;;
5297;SDS011;14738;42.668;23.250;2023-08-24T06:42:33;14.93;;;13.60;;
5297;SDS011;14738;42.668;23.250;2023-08-24T06:44:59;14.67;;;13.17;;
5297;SDS011;14738;42.668;23.250;2023-08-24T06:47:24;15.03;;;13.73;;
5297;SDS011;14738;42.668;23.250;2023-08-24T06:49:50;14.23;;;12.77;;
5297;SDS011;14738;42.668;23.250;2023-08-24T06:52:16;14.13;;;12.70;;
5297;SDS011;14738;42.668;23.250;2023-08-24T06:54:41;14.70;;;13.20;;
5297;SDS011;14738;42.668;23.250;2023-08-24T06:57:06;14.00;;;12.57;;
5297;SDS011;14738;42.668;23.250;2023-08-24T06:59:32;15.90;;;12.50;;
5297;SDS011;14738;42.668;23.250;2023-08-24T07:01:57;15.03;;;13.77;;
5297;SDS011;14738;42.668;23.250;2023-08-24T07:04:23;14.93;;;13.00;;
5297;SDS011;14738;42.668;23.250;2023-08-24T07:06:48;15.00;;;13.40;;
5297;SDS011;14738;42.668;23.250;2023-08-24T07:09:14;14.20;;;12.97;;
5297;SDS011;14738;42.668;23.250;2023-08-24T07:11:40;13.60;;;12.30;;
5297;SDS011;14738;42.668;23.250;2023-08-24T07:14:05;14.63;;;13.20;;
5297;SDS011;14738;42.668;23.250;2023-08-24T07:16:31;14.73;;;13.43;;
5297;SDS011;14738;42.668;23.250;2023-08-24T07:18:56;13.50;;;12.50;;
5297;SDS011;14738;42.668;23.250;2023-08-24T07:21:22;15.10;;;13.60;;
5297;SDS011;14738;42.668;23.250;2023-08-24T07:23:47;14.30;;;12.87;;
5297;SDS011;14738;42.668;23.250;2023-08-24T07:26:13;13.23;;;12.23;;
5297;SDS011;14738;42.668;23.250;2023-08-24T07:28:38;13.67;;;12.37;;
5297;SDS011;14738;42.668;23.250;2023-08-24T07:31:10;14.10;;;13.00;;
5297;SDS011;14738;42.668;23.250;2023-08-24T07:33:36;14.30;;;13.20;;
5297;SDS011;14738;42.668;23.250;2023-08-24T07:36:04;15.87;;;13.73;;
5297;SDS011;14738;42.668;23.250;2023-08-24T07:38:30;14.30;;;12.87;;
5297;SDS011;14738;42.668;23.250;2023-08-24T07:40:56;16.40;;;13.73;;
5297;SDS011;14738;42.668;23.250;2023-08-24T07:43:22;14.77;;;13.47;;
5297;SDS011;14738;42.668;23.250;2023-08-24T07:45:48;16.63;;;14.83;;
5297;SDS011;14738;42.668;23.250;2023-08-24T07:48:13;16.57;;;14.33;;
5297;SDS011;14738;42.668;23.250;2023-08-24T07:50:39;16.13;;;14.47;;
5297;SDS011;14738;42.668;23.250;2023-08-24T07:53:04;15.80;;;14.50;;
5297;SDS011;14738;42.668;23.250;2023-08-24T07:55:30;17.63;;;15.03;;
5297;SDS011;14738;42.668;23.250;2023-08-24T07:57:55;16.23;;;14.93;;
5297;SDS011;14738;42.668;23.250;2023-08-24T08:00:21;15.07;;;13.67;;
5297;SDS011;14738;42.668;23.250;2023-08-24T08:02:49;16.10;;;14.67;;
5297;SDS011;14738;42.668;23.250;2023-08-24T08:05:15;15.50;;;14.10;;
5297;SDS011;14738;42.668;23.250;2023-08-24T08:07:41;14.77;;;13.43;;
5297;SDS011;14738;42.668;23.250;2023-08-24T08:10:07;15.33;;;14.00;;
5297;SDS011;14738;42.668;23.250;2023-08-24T08:12:32;15.50;;;13.97;;
5297;SDS011;14738;42.668;23.250;2023-08-24T08:14:58;15.33;;;13.93;;
5297;SDS011;14738;42.668;23.250;2023-08-24T08:17:24;15.17;;;13.97;;
5297;SDS011;14738;42.668;23.250;2023-08-24T08:19:53;14.90;;;13.30;;
5297;SDS011;14738;42.668;23.250;2023-08-24T08:22:20;14.83;;;13.57;;
5297;SDS011;14738;42.668;23.250;2023-08-24T08:24:45;14.40;;;13.20;;
5297;SDS011;14738;42.668;23.250;2023-08-24T08:27:11;13.93;;;12.83;;
5297;SDS011;14738;42.668;23.250;2023-08-24T08:29:36;14.60;;;13.40;;
5297;SDS011;14738;42.668;23.250;2023-08-24T08:32:01;15.97;;;14.40;;
5297;SDS011;14738;42.668;23.250;2023-08-24T08:34:27;14.63;;;13.33;;
5297;SDS011;14738;42.668;23.250;2023-08-24T08:36:52;13.10;;;12.10;;
5297;SDS011;14738;42.668;23.250;2023-08-24T08:39:17;14.27;;;13.17;;
5297;SDS011;14738;42.668;23.250;2023-08-24T08:41:43;13.23;;;12.23;;
5297;SDS011;14738;42.668;23.250;2023-08-24T08:44:13;19.17;;;13.40;;
5297;SDS011;14738;42.668;23.250;2023-08-24T08:46:40;15.17;;;13.80;;
5297;SDS011;14738;42.668;23.250;2023-08-24T08:49:06;14.37;;;13.17;;
5297;SDS011;14738;42.668;23.250;2023-08-24T08:51:33;15.80;;;13.33;;
5297;SDS011;14738;42.668;23.250;2023-08-24T08:54:00;15.20;;;13.70;;
5297;SDS011;14738;42.668;23.250;2023-08-24T08:56:27;15.50;;;14.30;;
5297;SDS011;14738;42.668;23.250;2023-08-24T08:58:54;15.90;;;14.30;;
5297;SDS011;14738;42.668;23.250;2023-08-24T09:01:21;16.93;;;15.27;;
5297;SDS011;14738;42.668;23.250;2023-08-24T09:03:48;15.20;;;13.87;;
5297;SDS011;14738;42.668;23.250;2023-08-24T09:06:14;15.17;;;13.77;;
5297;SDS011;14738;42.668;23.250;2023-08-24T09:08:39;21.70;;;15.60;;
5297;SDS011;14738;42.668;23.250;2023-08-24T09:11:05;15.07;;;13.67;;
5297;SDS011;14738;42.668;23.250;2023-08-24T09:13:33;17.50;;;15.60;;
5297;SDS011;14738;42.668;23.250;2023-08-24T09:16:07;16.50;;;15.10;;
5297;SDS011;14738;42.668;23.250;2023-08-24T09:18:35;17.70;;;16.00;;
5297;SDS011;14738;42.668;23.250;2023-08-24T09:21:09;16.03;;;14.60;;
5297;SDS011;14738;42.668;23.250;2023-08-24T09:23:35;16.80;;;15.17;;
5297;SDS011;14738;42.668;23.250;2023-08-24T09:26:00;15.90;;;14.40;;
5297;SDS011;14738;42.668;23.250;2023-08-24T09:28:26;16.53;;;15.03;;
5297;SDS011;14738;42.668;23.250;2023-08-24T09:30:52;15.83;;;14.60;;
5297;SDS011;14738;42.668;23.250;2023-08-24T09:33:21;17.03;;;15.73;;
5297;SDS011;14738;42.668;23.250;2023-08-24T09:35:52;17.77;;;16.13;;
5297;SDS011;14738;42.668;23.250;2023-08-24T09:38:20;17.40;;;15.90;;
5297;SDS011;14738;42.668;23.250;2023-08-24T09:40:50;16.47;;;14.97;;
5297;SDS011;14738;42.668;23.250;2023-08-24T09:43:16;15.53;;;14.23;;
5297;SDS011;14738;42.668;23.250;2023-08-24T09:45:55;15.57;;;14.27;;
5297;SDS011;14738;42.668;23.250;2023-08-24T09:48:21;16.70;;;15.40;;
5297;SDS011;14738;42.668;23.250;2023-08-24T09:50:48;15.57;;;14.20;;
5297;SDS011;14738;42.668;23.250;2023-08-24T09:53:18;15.90;;;14.33;;
5297;SDS011;14738;42.668;23.250;2023-08-24T09:55:55;16.97;;;15.50;;
5297;SDS011;14738;42.668;23.250;2023-08-24T09:58:24;15.63;;;14.33;;
5297;SDS011;14738;42.668;23.250;2023-08-24T10:00:50;14.97;;;13.77;;
5297;SDS011;14738;42.668;23.250;2023-08-24T10:03:18;13.53;;;12.53;;
5297;SDS011;14738;42.668;23.250;2023-08-24T10:05:48;14.80;;;13.50;;
5297;SDS011;14738;42.668;23.250;2023-08-24T10:08:24;15.73;;;14.43;;
5297;SDS011;14738;42.668;23.250;2023-08-24T10:10:57;14.60;;;13.30;;
5297;SDS011;14738;42.668;23.250;2023-08-24T10:13:29;23.83;;;13.23;;
5297;SDS011;14738;42.668;23.250;2023-08-24T10:16:05;14.83;;;13.27;;
5297;SDS011;14738;42.668;23.250;2023-08-24T10:18:32;19.50;;;14.43;;
5297;SDS011;14738;42.668;23.250;2023-08-24T10:20:58;15.83;;;14.30;;
5297;SDS011;14738;42.668;23.250;2023-08-24T10:23:25;25.00;;;13.57;;
5297;SDS011;14738;42.668;23.250;2023-08-24T10:25:54;14.33;;;13.13;;
5297;SDS011;14738;42.668;23.250;2023-08-24T10:28:20;14.87;;;13.67;;
5297;SDS011;14738;42.668;23.250;2023-08-24T10:30:50;15.40;;;14.03;;
5297;SDS011;14738;42.668;23.250;2023-08-24T10:33:17;13.10;;;12.10;;
5297;SDS011;14738;42.668;23.250;2023-08-24T10:35:43;12.93;;;11.60;;
5297;SDS011;14738;42.668;23.250;2023-08-24T10:40:50;12.13;;;11.13;;
5297;SDS011;14738;42.668;23.250;2023-08-24T10:43:16;11.73;;;10.67;;
5297;SDS011;14738;42.668;23.250;2023-08-24T10:45:57;12.80;;;11.50;;
5297;SDS011;14738;42.668;23.250;2023-08-24T10:48:27;20.23;;;12.13;;
5297;SDS011;14738;42.668;23.250;2023-08-24T10:53:59;12.63;;;11.37;;
5297;SDS011;14738;42.668;23.250;2023-08-24T10:56:38;11.27;;;10.47;;
5297;SDS011;14738;42.668;23.250;2023-08-24T11:01:42;11.80;;;10.80;;
5297;SDS011;14738;42.668;23.250;2023-08-24T11:04:19;14.10;;;12.73;;
5297;SDS011;14738;42.668;23.250;2023-08-24T11:06:56;13.73;;;12.43;;
5297;SDS011;14738;42.668;23.250;2023-08-24T11:09:24;17.53;;;14.27;;
5297;SDS011;14738;42.668;23.250;2023-08-24T11:11:59;16.63;;;15.23;;
5297;SDS011;14738;42.668;23.250;2023-08-24T11:14:26;16.37;;;14.80;;
5297;SDS011;14738;42.668;23.250;2023-08-24T11:16:52;13.73;;;12.53;;
5297;SDS011;14738;42.668;23.250;2023-08-24T11:19:19;28.03;;;13.90;;
5297;SDS011;14738;42.668;23.250;2023-08-24T11:21:45;15.93;;;12.60;;
5297;SDS011;14738;42.668;23.250;2023-08-24T11:24:15;12.13;;;11.17;;
5297;SDS011;14738;42.668;23.250;2023-08-24T11:26:47;12.33;;;11.13;;
5297;SDS011;14738;42.668;23.250;2023-08-24T11:29:13;11.60;;;10.03;;
5297;SDS011;14738;42.668;23.250;2023-08-24T11:31:40;10.60;;;9.70;;
5297;SDS011;14738;42.668;23.250;2023-08-24T11:34:06;13.63;;;11.40;;
5297;SDS011;14738;42.668;23.250;2023-08-24T11:36:48;15.70;;;10.70;;
5297;SDS011;14738;42.668;23.250;2023-08-24T11:39:17;12.43;;;10.37;;
5297;SDS011;14738;42.668;23.250;2023-08-24T11:44:30;11.20;;;10.10;;
5297;SDS011;14738;42.668;23.250;2023-08-24T11:47:11;11.57;;;10.47;;
5297;SDS011;14738;42.668;23.250;2023-08-24T11:49:36;10.77;;;9.87;;
5297;SDS011;14738;42.668;23.250;2023-08-24T11:52:02;10.63;;;9.73;;
5297;SDS011;14738;42.668;23.250;2023-08-24T11:54:28;10.80;;;9.80;;
5297;SDS011;14738;42.668;23.250;2023-08-24T11:56:53;11.17;;;10.23;;
5297;SDS011;14738;42.668;23.250;2023-08-24T11:59:19;10.53;;;9.53;;
5297;SDS011;14738;42.668;23.250;2023-08-24T12:01:45;12.20;;;11.10;;
5297;SDS011;14738;42.668;23.250;2023-08-24T12:04:12;12.27;;;11.13;;
5297;SDS011;14738;42.668;23.250;2023-08-24T12:06:37;11.93;;;10.80;;
5297;SDS011;14738;42.668;23.250;2023-08-24T12:09:05;12.60;;;11.30;;
5297;SDS011;14738;42.668;23.250;2023-08-24T12:11:34;11.40;;;10.40;;
5297;SDS011;14738;42.668;23.250;2023-08-24T12:14:01;11.83;;;10.93;;
5297;SDS011;14738;42.668;23.250;2023-08-24T12:16:26;11.40;;;10.50;;
5297;SDS011;14738;42.668;23.250;2023-08-24T12:18:55;14.77;;;11.53;;
5297;SDS011;14738;42.668;23.250;2023-08-24T12:21:24;11.60;;;10.60;;
5297;SDS011;14738;42.668;23.250;2023-08-24T12:26:22;10.87;;;9.90;;
5297;SDS011;14738;42.668;23.250;2023-08-24T12:28:50;11.90;;;10.90;;
5297;SDS011;14738;42.668;23.250;2023-08-24T12:31:19;11.00;;;10.10;;
5297;SDS011;14738;42.668;23.250;2023-08-24T12:33:45;10.53;;;9.70;;
5297;SDS011;14738;42.668;23.250;2023-08-24T12:36:11;10.13;;;9.33;;
5297;SDS011;14738;42.668;23.250;2023-08-24T12:38:37;11.00;;;10.10;;
5297;SDS011;14738;42.668;23.250;2023-08-24T12:41:02;14.37;;;10.77;;
5297;SDS011;14738;42.668;23.250;2023-08-24T12:43:27;12.23;;;10.90;;
5297;SDS011;14738;42.668;23.250;2023-08-24T12:45:53;11.87;;;10.77;;
5297;SDS011;14738;42.668;23.250;2023-08-24T12:48:18;10.87;;;9.87;;
5297;SDS011;14738;42.668;23.250;2023-08-24T12:50:44;10.77;;;9.80;;
5297;SDS011;14738;42.668;23.250;2023-08-24T12:53:09;11.50;;;10.50;;
5297;SDS011;14738;42.668;23.250;2023-08-24T12:55:35;12.10;;;11.10;;
5297;SDS011;14738;42.668;23.250;2023-08-24T12:58:03;10.53;;;9.63;;
5297;SDS011;14738;42.668;23.250;2023-08-24T13:00:30;10.80;;;9.93;;
5297;SDS011;14738;42.668;23.250;2023-08-24T13:02:55;11.27;;;10.10;;
5297;SDS011;14738;42.668;23.250;2023-08-24T13:05:21;14.87;;;10.60;;
5297;SDS011;14738;42.668;23.250;2023-08-24T13:07:47;10.90;;;9.90;;
5297;SDS011;14738;42.668;23.250;2023-08-24T13:10:12;10.63;;;9.83;;
5297;SDS011;14738;42.668;23.250;2023-08-24T13:12:38;14.93;;;10.60;;
5297;SDS011;14738;42.668;23.250;2023-08-24T13:15:03;12.10;;;11.00;;
5297;SDS011;14738;42.668;23.250;2023-08-24T13:17:30;11.50;;;10.10;;
5297;SDS011;14738;42.668;23.250;2023-08-24T13:19:55;12.07;;;10.90;;
5297;SDS011;14738;42.668;23.250;2023-08-24T13:22:21;12.13;;;10.83;;
5297;SDS011;14738;42.668;23.250;2023-08-24T13:24:46;11.83;;;10.93;;
5297;SDS011;14738;42.668;23.250;2023-08-24T13:27:12;14.70;;;13.40;;
5297;SDS011;14738;42.668;23.250;2023-08-24T13:29:37;15.23;;;13.67;;
5297;SDS011;14738;42.668;23.250;2023-08-24T13:32:03;15.77;;;14.47;;
5297;SDS011;14738;42.668;23.250;2023-08-24T13:34:29;13.77;;;12.63;;
5297;SDS011;14738;42.668;23.250;2023-08-24T13:36:56;14.10;;;12.87;;
5297;SDS011;14738;42.668;23.250;2023-08-24T13:39:22;13.27;;;12.27;;
5297;SDS011;14738;42.668;23.250;2023-08-24T13:41:47;14.10;;;12.70;;
5297;SDS011;14738;42.668;23.250;2023-08-24T13:44:13;12.57;;;11.57;;
5297;SDS011;14738;42.668;23.250;2023-08-24T13:46:38;13.33;;;12.13;;
5297;SDS011;14738;42.668;23.250;2023-08-24T13:49:04;14.60;;;13.30;;
5297;SDS011;14738;42.668;23.250;2023-08-24T13:51:29;19.37;;;12.10;;
5297;SDS011;14738;42.668;23.250;2023-08-24T13:53:54;13.97;;;12.63;;
5297;SDS011;14738;42.668;23.250;2023-08-24T13:56:20;13.70;;;12.40;;
5297;SDS011;14738;42.668;23.250;2023-08-24T13:58:45;12.97;;;11.87;;
5297;SDS011;14738;42.668;23.250;2023-08-24T14:01:11;14.73;;;13.23;;
5297;SDS011;14738;42.668;23.250;2023-08-24T14:03:38;13.57;;;12.47;;
5297;SDS011;14738;42.668;23.250;2023-08-24T14:06:04;14.67;;;13.27;;
5297;SDS011;14738;42.668;23.250;2023-08-24T14:08:30;15.10;;;13.47;;
5297;SDS011;14738;42.668;23.250;2023-08-24T14:10:55;15.03;;;13.37;;
5297;SDS011;14738;42.668;23.250;2023-08-24T14:13:20;14.00;;;12.53;;
5297;SDS011;14738;42.668;23.250;2023-08-24T14:15:47;15.13;;;13.37;;
5297;SDS011;14738;42.668;23.250;2023-08-24T14:18:15;15.03;;;13.10;;
5297;SDS011;14738;42.668;23.250;2023-08-24T14:20:42;14.00;;;12.90;;
5297;SDS011;14738;42.668;23.250;2023-08-24T14:23:07;14.20;;;12.90;;
5297;SDS011;14738;42.668;23.250;2023-08-24T14:25:33;24.50;;;14.40;;
5297;SDS011;14738;42.668;23.250;2023-08-24T14:27:58;14.07;;;12.70;;
5297;SDS011;14738;42.668;23.250;2023-08-24T14:30:24;12.67;;;11.10;;
5297;SDS011;14738;42.668;23.250;2023-08-24T14:32:50;11.67;;;10.77;;
5297;SDS011;14738;42.668;23.250;2023-08-24T14:35:15;11.70;;;10.50;;
5297;SDS011;14738;42.668;23.250;2023-08-24T14:37:41;11.23;;;10.30;;
5297;SDS011;14738;42.668;23.250;2023-08-24T14:40:06;12.00;;;10.90;;
5297;SDS011;14738;42.668;23.250;2023-08-24T14:42:32;11.80;;;10.60;;